Time;durP1;ratioP1;P1;durP2;ratioP2;P2;SDS_P1;SDS_P2;PMS_P1;PMS_P2;Temp;Humidity;BMP_temperature;BMP_pressure;BME280_temperature;BME280_humidity;BME280_pressure;Samples;Min_cycle;Max_cycle;Signal;HPM_P1;HPM_P2
2023/07/15 00:01:36;;;;;;;5.53;2.70;;;19.80;99.90;;;;;;4214657;28;20050;-85
2023/07/15 00:03:37;;;;;;;4.53;2.75;;;19.80;99.90;;;;;;4213704;28;20032;-84
2023/07/15 00:05:39;;;;;;;6.20;2.80;;;19.70;99.90;;;;;;4214045;28;20040;-84
2023/07/15 00:07:42;;;;;;;3.67;2.30;;;19.70;99.90;;;;;;4214942;28;20109;-84
2023/07/15 00:09:43;;;;;;;5.15;2.58;;;19.70;99.90;;;;;;4214338;28;20377;-84
2023/07/15 00:11:45;;;;;;;3.53;2.53;;;19.70;99.90;;;;;;4214485;28;20074;-84
2023/07/15 00:13:47;;;;;;;6.05;3.50;;;19.70;99.90;;;;;;4213634;28;20055;-84
2023/07/15 00:15:50;;;;;;;5.40;2.90;;;19.70;99.90;;;;;;4214505;28;20058;-84
2023/07/15 00:17:52;;;;;;;5.07;3.03;;;19.70;99.90;;;;;;4214530;28;20044;-84
2023/07/15 00:19:52;;;;;;;5.97;2.75;;;19.70;99.90;;;;;;4214455;28;20392;-84
2023/07/15 00:21:53;;;;;;;5.65;2.92;;;19.70;99.90;;;;;;4215122;28;20122;-84
2023/07/15 00:23:57;;;;;;;5.95;2.90;;;19.60;99.90;;;;;;4214929;28;20044;-84
2023/07/15 00:25:58;;;;;;;3.70;2.40;;;19.60;99.90;;;;;;4215726;28;20047;-84
2023/07/15 00:28:01;;;;;;;4.40;2.70;;;19.60;99.90;;;;;;4214608;28;20052;-84
2023/07/15 00:30:03;;;;;;;4.82;2.40;;;19.60;99.90;;;;;;4213991;28;20055;-84
2023/07/15 00:32:09;;;;;;;5.22;2.70;;;19.60;99.90;;;;;;4214164;28;20050;-84
2023/07/15 00:34:10;;;;;;;8.93;2.70;;;19.60;99.90;;;;;;4214099;28;20101;-84
2023/07/15 00:36:12;;;;;;;5.30;2.75;;;19.60;99.90;;;;;;4214205;28;20044;-84
2023/07/15 00:38:13;;;;;;;5.25;2.75;;;19.60;99.90;;;;;;4213742;28;20044;-84
2023/07/15 00:40:15;;;;;;;4.70;2.70;;;19.60;99.90;;;;;;4213974;28;20089;-84
2023/07/15 00:42:42;;;;;;;5.57;2.83;;;19.60;99.90;;;;;;4214119;28;20377;-84
2023/07/15 00:44:42;;;;;;;4.93;2.55;;;19.60;99.90;;;;;;4213390;28;20438;-84
2023/07/15 00:47:14;;;;;;;6.57;2.78;;;19.50;99.90;;;;;;4214418;28;20513;-84
2023/07/15 00:49:42;;;;;;;5.25;2.42;;;19.50;99.90;;;;;;4213503;28;20510;-84
2023/07/15 00:51:50;;;;;;;4.22;2.55;;;19.50;99.90;;;;;;4212909;28;20516;-84
2023/07/15 00:53:53;;;;;;;3.97;2.42;;;19.50;99.90;;;;;;4214168;28;20040;-84
2023/07/15 00:55:54;;;;;;;6.22;2.80;;;19.60;99.90;;;;;;4213646;28;20093;-84
2023/07/15 00:57:57;;;;;;;4.53;2.42;;;19.60;99.90;;;;;;4213898;28;20051;-84
2023/07/15 00:59:59;;;;;;;6.68;2.53;;;19.60;99.90;;;;;;4213884;28;20412;-84
2023/07/15 01:02:01;;;;;;;4.85;2.50;;;19.60;99.90;;;;;;4215921;28;20044;-84
2023/07/15 01:04:02;;;;;;;7.43;2.65;;;19.60;99.90;;;;;;4217545;28;20044;-84
2023/07/15 01:06:03;;;;;;;4.43;2.20;;;19.60;99.90;;;;;;4217298;28;20102;-84
2023/07/15 01:08:03;;;;;;;5.40;2.75;;;19.70;99.90;;;;;;4216589;28;20040;-84
2023/07/15 01:10:05;;;;;;;6.72;2.10;;;19.70;99.90;;;;;;4217444;28;20079;-84
2023/07/15 01:12:06;;;;;;;6.38;2.63;;;19.70;99.90;;;;;;4217176;28;20036;-84
2023/07/15 01:14:09;;;;;;;4.95;2.42;;;19.70;99.90;;;;;;4217430;28;20127;-84
2023/07/15 01:16:10;;;;;;;8.25;2.85;;;19.70;99.90;;;;;;4217683;28;20060;-84
2023/07/15 01:18:11;;;;;;;4.55;2.50;;;19.70;99.90;;;;;;4215883;28;20102;-84
2023/07/15 01:20:11;;;;;;;6.13;2.45;;;19.70;99.90;;;;;;4217367;28;20125;-84
2023/07/15 01:22:12;;;;;;;4.45;2.03;;;19.70;99.90;;;;;;4216885;28;20052;-84
2023/07/15 01:24:13;;;;;;;5.13;2.35;;;19.80;99.90;;;;;;4217444;28;20484;-83
2023/07/15 01:26:14;;;;;;;5.53;2.30;;;19.80;99.90;;;;;;4217364;28;20040;-84
2023/07/15 01:28:14;;;;;;;4.03;2.58;;;19.80;99.90;;;;;;4217495;28;20077;-84
2023/07/15 01:30:15;;;;;;;6.68;2.38;;;19.80;99.90;;;;;;4216953;28;20503;-84
2023/07/15 01:32:16;;;;;;;6.35;2.33;;;19.80;99.90;;;;;;4216929;28;20048;-84
2023/07/15 01:34:16;;;;;;;5.50;2.22;;;19.90;99.90;;;;;;4217462;28;20045;-84
2023/07/15 01:36:17;;;;;;;5.10;2.30;;;19.90;99.90;;;;;;4218054;28;20048;-84
2023/07/15 01:38:18;;;;;;;5.68;2.65;;;20.00;99.90;;;;;;4217722;28;20044;-85
2023/07/15 01:40:18;;;;;;;4.88;2.50;;;20.00;99.90;;;;;;4218908;28;20040;-84
2023/07/15 01:42:19;;;;;;;5.50;2.50;;;20.00;99.90;;;;;;4217878;28;20051;-84
2023/07/15 01:44:20;;;;;;;5.65;2.60;;;20.00;99.90;;;;;;4218720;28;20541;-84
2023/07/15 01:46:20;;;;;;;8.95;2.03;;;20.10;99.90;;;;;;4217728;28;20036;-84
2023/07/15 01:48:22;;;;;;;3.58;2.13;;;20.10;99.90;;;;;;4216704;28;20054;-84
2023/07/15 01:50:23;;;;;;;3.70;2.00;;;20.10;99.90;;;;;;4217488;28;20476;-84
2023/07/15 01:52:23;;;;;;;4.85;2.40;;;20.10;99.90;;;;;;4217564;28;20039;-84
2023/07/15 01:54:25;;;;;;;7.43;2.95;;;20.20;99.90;;;;;;4217153;28;20071;-84
2023/07/15 01:56:26;;;;;;;4.57;2.60;;;20.20;99.90;;;;;;4217108;28;20066;-84
2023/07/15 01:58:28;;;;;;;4.75;2.15;;;20.20;99.90;;;;;;4217078;28;20130;-83
2023/07/15 02:00:29;;;;;;;4.65;2.00;;;20.20;99.90;;;;;;4215758;28;20080;-84
2023/07/15 02:02:30;;;;;;;10.45;2.30;;;20.20;99.90;;;;;;4217745;28;20036;-84
2023/07/15 02:04:30;;;;;;;3.08;1.80;;;20.20;99.90;;;;;;4216928;28;20063;-84
2023/07/15 02:06:31;;;;;;;6.85;2.10;;;20.10;99.90;;;;;;4217302;28;20506;-84
2023/07/15 02:08:32;;;;;;;3.70;1.90;;;20.10;99.90;;;;;;4217150;28;20127;-84
2023/07/15 02:10:32;;;;;;;5.47;2.35;;;20.10;99.90;;;;;;4214980;28;20036;-84
2023/07/15 02:12:34;;;;;;;5.72;2.13;;;20.10;99.90;;;;;;4215863;28;20105;-84
2023/07/15 02:14:36;;;;;;;7.32;2.75;;;20.00;99.90;;;;;;4215888;28;20093;-84
2023/07/15 02:16:37;;;;;;;4.03;2.20;;;20.10;99.90;;;;;;4216108;28;20500;-84
2023/07/15 02:18:37;;;;;;;3.00;2.00;;;20.00;99.90;;;;;;4216400;28;20105;-84
2023/07/15 02:20:38;;;;;;;3.90;2.40;;;20.00;99.90;;;;;;4214549;28;20056;-83
2023/07/15 02:22:41;;;;;;;7.47;2.25;;;20.00;99.90;;;;;;4216921;28;20140;-84
2023/07/15 02:24:41;;;;;;;2.92;1.90;;;20.00;99.90;;;;;;4216609;28;20541;-84
2023/07/15 02:26:42;;;;;;;8.73;2.38;;;19.90;99.90;;;;;;4215889;28;20043;-84
2023/07/15 02:28:43;;;;;;;7.15;2.25;;;19.90;99.90;;;;;;4215978;28;20051;-84
2023/07/15 02:30:44;;;;;;;8.23;1.98;;;19.90;99.90;;;;;;4216513;28;20040;-83
2023/07/15 02:32:45;;;;;;;4.60;1.77;;;19.80;99.90;;;;;;4215395;28;20105;-83
2023/07/15 02:34:45;;;;;;;3.17;1.90;;;19.80;99.90;;;;;;4215972;28;20047;-83
2023/07/15 02:36:47;;;;;;;3.40;1.88;;;19.80;99.90;;;;;;4215640;28;20078;-83
2023/07/15 02:38:48;;;;;;;4.25;2.03;;;19.80;99.90;;;;;;4216161;28;20497;-83
2023/07/15 02:40:50;;;;;;;4.03;2.00;;;19.80;99.90;;;;;;4215492;28;20044;-83
2023/07/15 02:42:51;;;;;;;4.15;2.10;;;19.80;99.90;;;;;;4217025;28;20541;-84
2023/07/15 02:44:52;;;;;;;4.88;2.25;;;19.70;99.90;;;;;;4217118;28;20107;-84
2023/07/15 02:46:53;;;;;;;7.97;2.78;;;19.70;99.90;;;;;;4216825;28;20051;-84
2023/07/15 02:48:53;;;;;;;7.10;2.08;;;19.70;99.90;;;;;;4217204;28;20047;-84
2023/07/15 02:50:55;;;;;;;3.05;1.92;;;19.70;99.90;;;;;;4217244;28;20089;-84
2023/07/15 02:52:56;;;;;;;6.15;1.95;;;19.70;99.90;;;;;;4216040;28;20044;-84
2023/07/15 02:54:56;;;;;;;3.30;1.95;;;19.70;99.90;;;;;;4216561;28;20040;-84
2023/07/15 02:56:57;;;;;;;2.78;1.85;;;19.70;99.90;;;;;;4217693;28;20134;-84
2023/07/15 02:58:58;;;;;;;3.70;1.90;;;19.70;99.90;;;;;;4216946;28;20131;-83
2023/07/15 03:00:58;;;;;;;4.93;1.73;;;19.70;99.90;;;;;;4217325;28;20456;-83
2023/07/15 03:02:59;;;;;;;3.70;2.40;;;19.70;99.90;;;;;;4217268;28;20557;-84
2023/07/15 03:05:00;;;;;;;3.72;1.80;;;19.70;99.90;;;;;;4216380;28;20044;-84
2023/07/15 03:07:02;;;;;;;5.72;1.88;;;19.70;99.90;;;;;;4218223;28;20389;-84
2023/07/15 03:09:03;;;;;;;4.18;2.08;;;19.70;99.90;;;;;;4216845;28;20055;-83
2023/07/15 03:11:07;;;;;;;4.07;1.60;;;19.70;99.90;;;;;;4217790;28;20075;-83
2023/07/15 03:13:08;;;;;;;5.65;1.80;;;19.70;99.90;;;;;;4217286;28;20449;-83
2023/07/15 03:15:09;;;;;;;4.13;1.58;;;19.70;99.90;;;;;;4217167;28;20044;-84
2023/07/15 03:17:10;;;;;;;3.67;1.80;;;19.80;99.90;;;;;;4216524;28;20044;-84
2023/07/15 03:19:11;;;;;;;7.25;1.75;;;19.90;99.90;;;;;;4216188;28;20048;-84
2023/07/15 03:21:12;;;;;;;3.22;1.85;;;20.00;99.90;;;;;;4217009;28;20457;-84
2023/07/15 03:23:12;;;;;;;5.18;1.77;;;20.10;99.90;;;;;;4215228;28;20036;-84
2023/07/15 03:25:14;;;;;;;2.38;1.50;;;20.10;99.90;;;;;;4218840;28;20052;-84
2023/07/15 03:27:15;;;;;;;5.40;2.17;;;20.20;99.90;;;;;;4222005;28;20036;-84
2023/07/15 03:29:15;;;;;;;3.10;1.60;;;20.20;99.90;;;;;;4221774;28;20385;-84
2023/07/15 03:31:16;;;;;;;3.25;1.80;;;20.30;99.90;;;;;;4220390;28;20040;-84
2023/07/15 03:33:17;;;;;;;7.25;1.75;;;20.40;99.90;;;;;;4222016;28;20040;-84
2023/07/15 03:35:17;;;;;;;3.35;1.73;;;20.40;99.90;;;;;;4223457;28;20036;-84
2023/07/15 03:37:18;;;;;;;5.10;1.40;;;20.50;99.90;;;;;;4221436;28;20054;-83
2023/07/15 03:39:20;;;;;;;3.97;1.42;;;20.60;99.90;;;;;;4221774;28;20073;-84
2023/07/15 03:41:21;;;;;;;5.40;1.75;;;20.60;99.90;;;;;;4222293;28;20141;-84
2023/07/15 03:43:22;;;;;;;7.13;2.17;;;20.70;99.90;;;;;;4223023;28;20051;-84
2023/07/15 03:45:23;;;;;;;5.70;1.70;;;20.70;99.90;;;;;;4221577;28;20471;-84
2023/07/15 03:47:23;;;;;;;3.33;1.70;;;20.70;99.90;;;;;;4226882;28;20067;-83
2023/07/15 03:49:24;;;;;;;3.40;1.80;;;20.70;99.90;;;;;;4231593;28;20024;-84
2023/07/15 03:51:25;;;;;;;3.58;1.75;;;20.70;99.90;;;;;;4233286;28;20062;-84
2023/07/15 03:53:26;;;;;;;6.65;1.48;;;20.80;99.90;;;;;;4228908;28;20050;-83
2023/07/15 03:55:26;;;;;;;4.43;1.92;;;20.70;99.90;;;;;;4222797;28;20069;-83
2023/07/15 03:57:27;;;;;;;2.78;1.50;;;20.70;99.90;;;;;;4227789;28;20535;-83
2023/07/15 03:59:28;;;;;;;3.38;1.60;;;20.70;99.90;;;;;;4227416;28;20055;-83
2023/07/15 04:01:30;;;;;;;4.95;1.60;;;20.80;99.90;;;;;;4227180;28;20060;-83
2023/07/15 04:03:30;;;;;;;5.07;1.50;;;20.70;99.90;;;;;;4226883;28;20568;-84
2023/07/15 04:05:31;;;;;;;3.83;1.63;;;20.70;99.90;;;;;;4218969;28;20047;-83
2023/07/15 04:07:32;;;;;;;4.63;1.67;;;20.70;99.90;;;;;;4226297;28;20043;-83
2023/07/15 04:09:33;;;;;;;3.78;1.83;;;20.70;99.90;;;;;;4230204;28;20055;-83
2023/07/15 04:11:33;;;;;;;6.10;1.50;;;20.60;99.90;;;;;;4231294;28;20035;-84
2023/07/15 04:13:34;;;;;;;3.17;1.40;;;20.70;99.90;;;;;;4228648;28;20044;-83
2023/07/15 04:15:35;;;;;;;5.97;1.17;;;20.60;99.90;;;;;;4218696;28;20044;-84
2023/07/15 04:17:36;;;;;;;6.07;1.60;;;20.70;99.90;;;;;;4216034;28;20455;-84
2023/07/15 04:19:38;;;;;;;3.47;1.77;;;20.90;99.90;;;;;;4215772;28;20044;-84
2023/07/15 04:21:38;;;;;;;11.20;1.67;;;20.60;99.90;;;;;;4213074;28;20070;-84
2023/07/15 04:23:39;;;;;;;3.15;1.58;;;20.60;99.90;;;;;;4213704;28;20035;-84
2023/07/15 04:25:40;;;;;;;4.13;1.67;;;20.60;99.90;;;;;;4214412;28;20069;-84
2023/07/15 04:27:41;;;;;;;7.43;1.70;;;20.60;99.90;;;;;;4214738;28;20438;-83
2023/07/15 04:29:42;;;;;;;6.60;1.70;;;20.60;99.90;;;;;;4214844;28;20400;-83
2023/07/15 04:31:42;;;;;;;4.32;1.50;;;20.60;99.90;;;;;;4214638;28;20078;-84
2023/07/15 04:33:45;;;;;;;3.13;1.52;;;20.50;99.90;;;;;;4214866;28;20047;-84
2023/07/15 04:35:45;;;;;;;4.10;1.40;;;20.50;99.90;;;;;;4214016;28;20055;-84
2023/07/15 04:37:46;;;;;;;4.32;1.70;;;20.60;99.90;;;;;;4214625;28;20404;-84
2023/07/15 04:39:47;;;;;;;4.10;2.00;;;20.60;99.90;;;;;;4214528;28;20110;-84
2023/07/15 04:41:47;;;;;;;4.82;1.67;;;20.60;99.90;;;;;;4214665;28;20666;-84
2023/07/15 04:43:48;;;;;;;5.05;2.28;;;20.50;99.90;;;;;;4214423;28;20048;-84
2023/07/15 04:45:49;;;;;;;8.63;1.73;;;20.60;99.90;;;;;;4214883;28;20056;-83
2023/07/15 04:47:50;;;;;;;4.05;1.65;;;20.60;99.90;;;;;;4214625;28;20036;-84
2023/07/15 04:49:50;;;;;;;5.32;1.70;;;20.60;99.90;;;;;;4214801;28;20093;-84
2023/07/15 04:51:51;;;;;;;4.03;1.45;;;20.60;99.90;;;;;;4214226;28;20127;-83
2023/07/15 04:53:52;;;;;;;3.70;1.60;;;20.70;99.90;;;;;;4214676;28;20044;-84
2023/07/15 04:55:53;;;;;;;4.45;1.60;;;20.60;99.90;;;;;;4197170;28;20137;-84
2023/07/15 04:57:54;;;;;;;4.70;1.73;;;20.70;99.90;;;;;;4216473;28;20051;-83
2023/07/15 04:59:55;;;;;;;4.35;2.10;;;20.70;99.90;;;;;;4214886;28;20048;-84
2023/07/15 05:01:55;;;;;;;5.53;2.13;;;20.80;99.90;;;;;;4215347;28;20584;-84
2023/07/15 05:03:57;;;;;;;4.40;1.35;;;20.80;99.90;;;;;;4214425;28;20086;-84
2023/07/15 05:05:58;;;;;;;2.80;1.42;;;20.80;99.90;;;;;;4215129;28;20044;-84
2023/07/15 05:08:18;;;;;;;6.45;1.75;;;20.90;99.90;;;;;;4214629;28;20446;-83
2023/07/15 05:10:19;;;;;;;5.30;1.60;;;20.90;99.90;;;;;;4215380;28;20075;-83
2023/07/15 05:12:20;;;;;;;3.05;1.92;;;20.90;99.90;;;;;;4215838;28;20044;-83
2023/07/15 05:14:22;;;;;;;4.15;1.70;;;20.90;99.90;;;;;;4214924;28;20051;-83
2023/07/15 05:16:23;;;;;;;2.90;2.10;;;20.90;99.90;;;;;;4216624;28;20037;-84
2023/07/15 05:18:23;;;;;;;6.70;1.67;;;20.90;99.90;;;;;;4214963;28;20040;-84
2023/07/15 05:20:24;;;;;;;4.05;1.60;;;20.90;99.90;;;;;;4216238;28;20040;-84
2023/07/15 05:22:25;;;;;;;3.13;2.00;;;20.90;99.90;;;;;;4215517;28;20101;-84
2023/07/15 05:24:28;;;;;;;5.18;1.70;;;20.90;99.90;;;;;;4216150;28;20078;-83
2023/07/15 05:26:30;;;;;;;4.72;1.70;;;21.00;99.90;;;;;;4216065;28;20033;-83
2023/07/15 05:28:32;;;;;;;3.53;1.73;;;20.90;99.90;;;;;;4215584;28;20074;-82
2023/07/15 05:30:36;;;;;;;5.85;2.28;;;20.90;99.90;;;;;;4215687;28;20044;-83
2023/07/15 05:32:37;;;;;;;4.75;1.60;;;20.90;99.90;;;;;;4215135;28;20480;-84
2023/07/15 05:34:38;;;;;;;3.70;1.77;;;21.00;99.90;;;;;;4215091;28;20051;-84
2023/07/15 05:36:39;;;;;;;6.50;1.80;;;21.00;99.90;;;;;;4214773;28;20044;-84
2023/07/15 05:38:43;;;;;;;5.82;2.42;;;21.10;99.90;;;;;;4215079;28;20566;-83
2023/07/15 05:40:44;;;;;;;4.40;2.08;;;21.10;99.90;;;;;;4214827;28;20545;-84
2023/07/15 05:42:45;;;;;;;3.28;1.60;;;21.20;99.90;;;;;;4214636;28;20045;-83
2023/07/15 05:44:46;;;;;;;4.72;1.77;;;21.20;99.90;;;;;;4215282;28;20052;-83
2023/07/15 05:46:48;;;;;;;6.63;1.75;;;21.30;99.90;;;;;;4215129;28;20067;-83
2023/07/15 05:48:49;;;;;;;3.13;2.03;;;21.30;99.90;;;;;;4218222;28;20508;-83
2023/07/15 05:50:49;;;;;;;5.18;1.80;;;21.30;99.90;;;;;;4217600;28;20047;-83
2023/07/15 05:52:50;;;;;;;5.68;1.77;;;21.40;99.90;;;;;;4218361;28;20044;-84
2023/07/15 05:54:51;;;;;;;5.75;2.20;;;21.40;99.90;;;;;;4216961;28;20048;-84
2023/07/15 05:56:52;;;;;;;5.57;2.20;;;21.50;99.90;;;;;;4217195;28;20131;-84
2023/07/15 05:58:53;;;;;;;5.45;2.15;;;21.50;99.90;;;;;;4218462;28;20048;-83
2023/07/15 06:00:53;;;;;;;3.25;1.60;;;21.50;99.90;;;;;;4216570;28;20044;-83
2023/07/15 06:02:55;;;;;;;6.60;1.70;;;21.50;99.90;;;;;;4217901;28;20519;-84
2023/07/15 06:04:56;;;;;;;3.75;1.50;;;21.60;99.90;;;;;;4217169;28;20051;-84
2023/07/15 06:06:56;;;;;;;4.63;1.65;;;21.60;99.90;;;;;;4218438;28;20123;-84
2023/07/15 06:08:57;;;;;;;2.72;1.85;;;21.70;99.90;;;;;;4217530;28;20044;-83
2023/07/15 06:10:58;;;;;;;8.63;1.55;;;21.70;99.90;;;;;;4217031;28;20044;-83
2023/07/15 06:12:59;;;;;;;5.72;1.73;;;21.80;99.90;;;;;;4216757;28;20122;-83
2023/07/15 06:14:59;;;;;;;10.32;2.10;;;21.80;99.90;;;;;;4217228;28;20454;-84
2023/07/15 06:17:00;;;;;;;8.10;1.90;;;21.90;99.90;;;;;;4217671;28;20044;-83
2023/07/15 06:19:01;;;;;;;4.10;1.75;;;22.00;99.90;;;;;;4217395;28;20080;-84
2023/07/15 06:21:01;;;;;;;3.75;2.10;;;22.00;99.90;;;;;;4217623;28;20494;-84
2023/07/15 06:23:02;;;;;;;8.65;2.55;;;22.00;99.90;;;;;;4217249;28;20071;-84
2023/07/15 06:25:04;;;;;;;6.28;2.58;;;22.00;99.90;;;;;;4217868;28;20043;-84
2023/07/15 06:27:05;;;;;;;4.25;1.70;;;22.10;99.90;;;;;;4216665;28;20048;-86
2023/07/15 06:29:06;;;;;;;6.25;1.83;;;22.20;99.90;;;;;;4216254;28;20077;-84
2023/07/15 06:31:07;;;;;;;6.15;2.17;;;22.30;99.90;;;;;;4218456;28;20044;-85
2023/07/15 06:33:08;;;;;;;5.35;1.60;;;22.40;99.90;;;;;;4216631;28;20043;-84
2023/07/15 06:35:09;;;;;;;5.28;1.83;;;22.40;99.90;;;;;;4217584;28;20044;-84
2023/07/15 06:37:10;;;;;;;2.20;1.40;;;22.40;99.90;;;;;;4217798;28;20050;-84
2023/07/15 06:39:10;;;;;;;5.03;1.92;;;22.40;99.90;;;;;;4217493;28;20098;-84
2023/07/15 06:41:11;;;;;;;9.95;1.83;;;22.30;99.90;;;;;;4216224;28;20459;-84
2023/07/15 06:43:12;;;;;;;2.85;1.50;;;22.30;99.90;;;;;;4218467;28;20081;-84
2023/07/15 06:45:13;;;;;;;3.83;1.55;;;22.30;99.90;;;;;;4218633;28;20488;-84
2023/07/15 06:47:14;;;;;;;4.90;1.55;;;22.20;99.90;;;;;;4217060;28;20036;-84
2023/07/15 06:49:14;;;;;;;4.88;1.92;;;22.20;99.90;;;;;;4218501;28;20104;-84
2023/07/15 06:51:15;;;;;;;4.20;1.50;;;22.30;99.90;;;;;;4217653;28;20048;-84
2023/07/15 06:53:16;;;;;;;5.03;1.85;;;22.30;99.90;;;;;;4217077;28;20051;-84
2023/07/15 06:55:16;;;;;;;4.85;2.00;;;22.40;99.90;;;;;;4217099;28;20047;-84
2023/07/15 06:57:18;;;;;;;4.82;2.25;;;22.50;99.90;;;;;;4218302;28;20063;-84
2023/07/15 06:59:19;;;;;;;4.78;1.80;;;22.60;99.90;;;;;;4216704;28;20035;-84
2023/07/15 07:01:20;;;;;;;6.40;2.03;;;22.80;99.90;;;;;;4217424;28;20066;-84
2023/07/15 07:03:21;;;;;;;5.93;1.60;;;22.70;99.90;;;;;;4217818;28;20035;-84
2023/07/15 07:05:21;;;;;;;4.93;1.85;;;22.80;99.90;;;;;;4216638;28;20381;-84
2023/07/15 07:07:23;;;;;;;9.18;2.60;;;22.80;99.90;;;;;;4218024;28;20492;-84
2023/07/15 07:09:24;;;;;;;4.75;1.50;;;22.90;99.90;;;;;;4215755;28;20044;-84
2023/07/15 07:11:24;;;;;;;7.18;1.85;;;22.90;99.90;;;;;;4217031;28;20458;-84
2023/07/15 07:13:25;;;;;;;4.75;2.17;;;23.00;99.90;;;;;;4217071;28;20051;-84
2023/07/15 07:15:27;;;;;;;3.33;1.63;;;23.00;99.90;;;;;;4216847;28;20078;-84
2023/07/15 07:17:29;;;;;;;4.10;1.40;;;23.10;99.90;;;;;;4216894;28;20043;-84
2023/07/15 07:19:30;;;;;;;4.47;1.65;;;23.20;99.90;;;;;;4216058;28;20087;-84
2023/07/15 07:21:30;;;;;;;2.92;1.45;;;23.30;99.90;;;;;;4217609;28;20055;-84
2023/07/15 07:23:31;;;;;;;5.50;1.65;;;23.50;99.90;;;;;;4215839;28;20044;-84
2023/07/15 07:25:32;;;;;;;5.50;1.60;;;23.60;99.90;;;;;;4216324;28;20072;-84
2023/07/15 07:27:33;;;;;;;3.92;1.60;;;23.60;99.90;;;;;;4216468;28;20571;-84
2023/07/15 07:29:34;;;;;;;3.90;1.30;;;23.60;99.90;;;;;;4217565;28;20510;-84
2023/07/15 07:31:34;;;;;;;4.18;1.30;;;23.60;99.90;;;;;;4216746;28;20190;-84
2023/07/15 07:33:35;;;;;;;6.22;1.45;;;23.70;99.90;;;;;;4216543;28;20052;-84
2023/07/15 07:35:36;;;;;;;4.13;1.58;;;23.80;99.90;;;;;;4217632;28;20036;-84
2023/07/15 07:37:37;;;;;;;3.20;1.65;;;23.90;99.90;;;;;;4215785;28;20105;-84
2023/07/15 07:39:37;;;;;;;3.60;1.40;;;24.00;99.90;;;;;;4217721;28;20043;-84
2023/07/15 07:41:39;;;;;;;2.80;1.30;;;24.20;99.90;;;;;;4216367;28;20598;-84
2023/07/15 07:43:40;;;;;;;4.63;1.30;;;24.30;99.90;;;;;;4217609;28;20052;-84
2023/07/15 07:45:41;;;;;;;2.63;1.15;;;24.40;99.90;;;;;;4215924;28;20500;-84
2023/07/15 07:47:43;;;;;;;3.40;1.35;;;24.30;99.90;;;;;;4217372;28;20450;-84
2023/07/15 07:49:43;;;;;;;5.00;1.35;;;24.30;99.90;;;;;;4217448;28;20042;-84
2023/07/15 07:51:44;;;;;;;3.97;1.25;;;24.40;99.90;;;;;;4217155;28;20090;-83
2023/07/15 07:53:45;;;;;;;4.57;1.50;;;24.50;99.90;;;;;;4217297;28;20118;-83
2023/07/15 07:55:46;;;;;;;3.33;1.02;;;24.60;99.90;;;;;;4215673;28;20568;-84
2023/07/15 07:57:46;;;;;;;3.30;1.30;;;24.60;99.90;;;;;;4216964;28;20040;-84
2023/07/15 07:59:47;;;;;;;4.57;1.52;;;24.70;99.90;;;;;;4216117;28;20041;-84
2023/07/15 08:01:48;;;;;;;7.38;1.20;;;24.80;99.90;;;;;;4216973;28;20044;-84
2023/07/15 08:03:48;;;;;;;2.70;1.10;;;24.80;99.90;;;;;;4215963;28;20071;-84
2023/07/15 08:05:50;;;;;;;2.45;1.15;;;24.80;99.90;;;;;;4215634;28;20044;-83
2023/07/15 08:07:51;;;;;;;2.85;1.10;;;24.80;99.90;;;;;;4216734;28;20123;-84
2023/07/15 08:09:52;;;;;;;5.75;2.00;;;24.60;99.90;;;;;;4215096;28;20044;-84
2023/07/15 08:11:52;;;;;;;3.58;1.70;;;24.60;99.90;;;;;;4216506;28;20040;-83
2023/07/15 08:13:53;;;;;;;4.53;1.27;;;24.60;99.90;;;;;;4215576;28;20044;-83
2023/07/15 08:15:54;;;;;;;3.38;1.20;;;24.70;99.90;;;;;;4216373;28;20067;-84
2023/07/15 08:17:54;;;;;;;3.08;1.30;;;24.90;99.90;;;;;;4213985;28;20492;-84
2023/07/15 08:19:55;;;;;;;4.35;1.80;;;25.10;99.90;;;;;;4215978;28;20050;-84
2023/07/15 08:21:57;;;;;;;3.05;1.40;;;25.20;99.90;;;;;;4216037;28;20046;-84
2023/07/15 08:23:59;;;;;;;7.82;1.45;;;25.20;99.90;;;;;;4215450;28;20055;-84
2023/07/15 08:25:59;;;;;;;3.92;1.40;;;25.30;99.90;;;;;;4215948;28;20086;-83
2023/07/15 08:28:00;;;;;;;2.25;1.45;;;25.30;99.90;;;;;;4215957;28;20400;-83
2023/07/15 08:30:02;;;;;;;2.10;0.88;;;25.40;99.90;;;;;;4216421;28;20044;-84
2023/07/15 08:32:03;;;;;;;4.32;0.90;;;25.40;99.90;;;;;;4213366;28;20083;-84
2023/07/15 08:34:03;;;;;;;4.80;1.42;;;25.50;99.90;;;;;;4216252;28;20130;-84
2023/07/15 08:36:04;;;;;;;2.13;1.00;;;25.70;99.90;;;;;;4215837;28;20040;-83
2023/07/15 08:38:05;;;;;;;5.60;1.15;;;25.80;99.90;;;;;;4216216;28;20047;-83
2023/07/15 08:40:08;;;;;;;3.63;0.80;;;25.80;99.90;;;;;;4215950;28;20524;-83
2023/07/15 08:42:08;;;;;;;1.85;1.20;;;25.80;99.90;;;;;;4217408;28;20555;-84
2023/07/15 08:44:12;;;;;;;2.90;0.85;;;25.90;99.90;;;;;;4217050;28;20044;-84
2023/07/15 08:46:30;;;;;;;1.33;0.90;;;25.70;99.60;;;;;;4215206;28;20069;-84
2023/07/15 08:48:31;;;;;;;2.70;1.00;;;25.60;99.30;;;;;;4215707;28;20097;-84
2023/07/15 08:50:34;;;;;;;2.78;1.00;;;25.50;99.80;;;;;;4216120;28;20044;-84
2023/07/15 08:52:36;;;;;;;2.15;0.90;;;25.50;99.90;;;;;;4216161;28;20090;-84
2023/07/15 08:54:38;;;;;;;3.28;0.95;;;25.50;99.90;;;;;;4216187;28;20044;-84
2023/07/15 08:56:39;;;;;;;1.00;0.88;;;25.60;99.90;;;;;;4215090;28;20060;-84
2023/07/15 08:58:40;;;;;;;2.65;1.30;;;25.50;99.90;;;;;;4216759;28;20024;-84
2023/07/15 09:00:41;;;;;;;4.05;1.33;;;25.30;99.90;;;;;;4196867;28;20555;-84
2023/07/15 09:02:42;;;;;;;1.20;0.90;;;25.30;99.90;;;;;;4214988;28;20048;-83
2023/07/15 09:04:43;;;;;;;1.90;0.90;;;25.20;99.90;;;;;;4215273;28;20043;-83
2023/07/15 09:06:44;;;;;;;1.55;0.90;;;25.30;99.90;;;;;;4214933;28;20044;-84
2023/07/15 09:08:52;;;;;;;1.40;1.05;;;25.50;99.90;;;;;;4216669;28;20554;-83
2023/07/15 09:10:54;;;;;;;1.55;0.77;;;25.70;99.80;;;;;;4215288;28;20040;-83
2023/07/15 09:12:56;;;;;;;1.45;0.75;;;25.70;99.80;;;;;;4216653;28;20053;-83
2023/07/15 09:14:58;;;;;;;1.85;0.90;;;25.90;99.90;;;;;;4215923;28;20043;-84
2023/07/15 09:16:59;;;;;;;2.13;0.90;;;26.10;99.90;;;;;;4215703;28;20048;-84
2023/07/15 09:19:01;;;;;;;1.40;0.82;;;26.00;99.70;;;;;;4215364;28;20400;-83
2023/07/15 09:21:10;;;;;;;1.40;0.70;;;26.00;99.80;;;;;;4215197;28;20043;-84
2023/07/15 09:23:11;;;;;;;1.48;1.02;;;26.10;99.90;;;;;;4218668;28;20485;-84
2023/07/15 09:25:12;;;;;;;1.60;0.98;;;26.30;99.90;;;;;;4218810;28;20051;-84
2023/07/15 09:27:13;;;;;;;4.57;0.85;;;26.50;99.70;;;;;;4219454;28;20068;-84
2023/07/15 09:29:14;;;;;;;3.35;0.85;;;26.60;99.40;;;;;;4219172;28;20097;-84
2023/07/15 09:31:25;;;;;;;2.10;1.08;;;26.50;99.60;;;;;;4219038;28;20511;-83
2023/07/15 09:33:32;;;;;;;1.58;0.90;;;26.30;98.60;;;;;;4218510;28;20127;-83
2023/07/15 09:35:37;;;;;;;1.92;1.50;;;26.20;99.40;;;;;;4219096;28;20067;-84
2023/07/15 09:37:37;;;;;;;2.78;1.05;;;26.00;99.50;;;;;;4217573;28;20047;-84
2023/07/15 09:39:38;;;;;;;3.55;1.23;;;25.80;99.90;;;;;;4218582;28;20036;-84
2023/07/15 09:41:41;;;;;;;1.33;0.93;;;25.70;99.90;;;;;;4219144;28;20186;-83
2023/07/15 09:43:52;;;;;;;4.25;1.00;;;26.00;99.90;;;;;;4235389;28;20040;-83
2023/07/15 09:45:53;;;;;;;4.95;1.83;;;26.20;99.90;;;;;;4219048;28;20510;-84
2023/07/15 09:47:54;;;;;;;4.70;1.20;;;26.30;99.90;;;;;;4218280;28;20396;-83
2023/07/15 09:49:55;;;;;;;1.20;0.90;;;26.40;99.90;;;;;;4218744;28;20075;-83
2023/07/15 09:51:57;;;;;;;1.60;1.00;;;26.30;99.80;;;;;;4218039;28;20063;-83
2023/07/15 09:54:02;;;;;;;4.35;0.93;;;26.50;99.80;;;;;;4218239;28;20070;-83
2023/07/15 09:56:05;;;;;;;6.07;1.00;;;26.60;99.90;;;;;;4217786;28;20127;-83
2023/07/15 09:58:12;;;;;;;3.53;1.30;;;26.80;99.40;;;;;;4218554;28;20051;-83
2023/07/15 10:00:14;;;;;;;2.53;1.27;;;26.90;99.50;;;;;;4218832;28;20492;-83
2023/07/15 10:02:40;;;;;;;1.70;0.88;;;27.30;99.60;;;;;;4219431;28;20040;-83
2023/07/15 10:04:45;;;;;;;2.47;1.23;;;27.40;99.10;;;;;;4218390;28;20488;-82
2023/07/15 10:06:47;;;;;;;1.25;0.98;;;27.20;99.20;;;;;;4219056;28;20726;-84
2023/07/15 10:08:48;;;;;;;3.97;1.10;;;26.90;99.30;;;;;;4218055;28;20122;-83
2023/07/15 10:10:49;;;;;;;1.88;1.13;;;26.80;99.50;;;;;;4217615;28;20461;-83
2023/07/15 10:12:50;;;;;;;2.97;1.08;;;26.80;99.60;;;;;;4217690;28;20040;-83
2023/07/15 10:14:51;;;;;;;1.35;0.70;;;26.90;99.70;;;;;;4218662;28;20541;-83
2023/07/15 10:17:14;;;;;;;4.95;1.55;;;27.00;99.70;;;;;;4218135;28;20477;-84
2023/07/15 10:19:41;;;;;;;3.83;1.17;;;27.00;99.50;;;;;;4216980;28;20036;-83
2023/07/15 10:21:47;;;;;;;2.63;1.20;;;26.90;99.60;;;;;;4217344;28;20050;-84
2023/07/15 10:23:48;;;;;;;1.92;1.10;;;26.80;99.70;;;;;;4216955;28;20040;-83
2023/07/15 10:25:58;;;;;;;3.00;1.20;;;26.90;99.60;;;;;;4216899;28;20417;-83
2023/07/15 10:28:14;;;;;;;2.53;1.30;;;27.10;99.50;;;;;;4217677;28;20089;-83
2023/07/15 10:30:27;;;;;;;3.63;1.30;;;27.20;99.60;;;;;;4217080;28;20085;-84
2023/07/15 10:32:28;;;;;;;2.92;1.17;;;27.40;99.10;;;;;;4216930;28;20087;-84
2023/07/15 10:34:36;;;;;;;7.20;1.10;;;27.50;98.80;;;;;;4216056;28;20408;-83